sensor_id;sensor_type;location;lat;lon;timestamp;temperature;humidity
68433;DHT22;55412;51.350;17.056;2023-05-27T00:01:26;9.70;71.50
68433;DHT22;55412;51.350;17.056;2023-05-27T00:03:52;9.70;71.30
68433;DHT22;55412;51.350;17.056;2023-05-27T00:06:18;9.70;71.30
68433;DHT22;55412;51.350;17.056;2023-05-27T00:08:45;9.70;71.20
68433;DHT22;55412;51.350;17.056;2023-05-27T00:11:11;9.70;71.30
68433;DHT22;55412;51.350;17.056;2023-05-27T00:13:37;9.60;71.50
68433;DHT22;55412;51.350;17.056;2023-05-27T00:16:03;9.60;71.40
68433;DHT22;55412;51.350;17.056;2023-05-27T00:18:29;9.60;71.50
68433;DHT22;55412;51.350;17.056;2023-05-27T00:20:58;9.50;71.70
68433;DHT22;55412;51.350;17.056;2023-05-27T00:23:25;9.50;71.70
68433;DHT22;55412;51.350;17.056;2023-05-27T00:25:51;9.50;71.80
68433;DHT22;55412;51.350;17.056;2023-05-27T00:28:17;9.50;71.80
68433;DHT22;55412;51.350;17.056;2023-05-27T00:30:43;9.40;72.00
68433;DHT22;55412;51.350;17.056;2023-05-27T00:33:09;9.40;71.90
68433;DHT22;55412;51.350;17.056;2023-05-27T00:35:35;9.40;72.00
68433;DHT22;55412;51.350;17.056;2023-05-27T00:38:03;9.30;72.10
68433;DHT22;55412;51.350;17.056;2023-05-27T00:40:30;9.30;72.30
68433;DHT22;55412;51.350;17.056;2023-05-27T00:42:56;9.30;72.30
68433;DHT22;55412;51.350;17.056;2023-05-27T00:45:22;9.20;72.70
68433;DHT22;55412;51.350;17.056;2023-05-27T00:47:49;9.10;73.00
68433;DHT22;55412;51.350;17.056;2023-05-27T00:50:18;9.10;73.20
68433;DHT22;55412;51.350;17.056;2023-05-27T00:52:44;9.00;73.20
68433;DHT22;55412;51.350;17.056;2023-05-27T00:55:10;9.00;73.30
68433;DHT22;55412;51.350;17.056;2023-05-27T00:57:36;8.90;73.30
68433;DHT22;55412;51.350;17.056;2023-05-27T01:00:03;8.90;73.40
68433;DHT22;55412;51.350;17.056;2023-05-27T01:02:35;8.90;74.20
68433;DHT22;55412;51.350;17.056;2023-05-27T01:05:02;8.80;74.50
68433;DHT22;55412;51.350;17.056;2023-05-27T01:13:45;8.70;75.20
68433;DHT22;55412;51.350;17.056;2023-05-27T01:16:13;8.60;75.50
68433;DHT22;55412;51.350;17.056;2023-05-27T01:18:45;8.60;75.70
68433;DHT22;55412;51.350;17.056;2023-05-27T01:21:14;8.50;75.70
68433;DHT22;55412;51.350;17.056;2023-05-27T01:23:48;8.50;75.90
68433;DHT22;55412;51.350;17.056;2023-05-27T01:26:14;8.50;75.80
68433;DHT22;55412;51.350;17.056;2023-05-27T01:28:41;8.40;76.00
68433;DHT22;55412;51.350;17.056;2023-05-27T01:31:15;8.40;76.00
68433;DHT22;55412;51.350;17.056;2023-05-27T01:34:02;8.40;76.10
68433;DHT22;55412;51.350;17.056;2023-05-27T01:36:36;8.30;76.30
68433;DHT22;55412;51.350;17.056;2023-05-27T01:39:06;8.30;76.40
68433;DHT22;55412;51.350;17.056;2023-05-27T01:41:38;8.20;76.50
68433;DHT22;55412;51.350;17.056;2023-05-27T01:44:08;8.20;76.60
68433;DHT22;55412;51.350;17.056;2023-05-27T01:46:36;8.20;76.60
68433;DHT22;55412;51.350;17.056;2023-05-27T01:49:03;8.10;76.80
68433;DHT22;55412;51.350;17.056;2023-05-27T01:51:29;8.10;76.90
68433;DHT22;55412;51.350;17.056;2023-05-27T01:53:55;8.10;76.80
68433;DHT22;55412;51.350;17.056;2023-05-27T01:56:21;8.10;77.00
68433;DHT22;55412;51.350;17.056;2023-05-27T01:58:48;8.00;77.00
68433;DHT22;55412;51.350;17.056;2023-05-27T02:01:14;8.00;77.20
68433;DHT22;55412;51.350;17.056;2023-05-27T02:03:40;8.00;77.20
68433;DHT22;55412;51.350;17.056;2023-05-27T02:06:06;7.90;77.50
68433;DHT22;55412;51.350;17.056;2023-05-27T02:08:32;7.90;77.80
68433;DHT22;55412;51.350;17.056;2023-05-27T02:10:59;7.90;77.90
68433;DHT22;55412;51.350;17.056;2023-05-27T02:13:25;7.80;78.20
68433;DHT22;55412;51.350;17.056;2023-05-27T02:15:51;7.80;78.30
68433;DHT22;55412;51.350;17.056;2023-05-27T02:18:17;7.80;78.30
68433;DHT22;55412;51.350;17.056;2023-05-27T02:20:46;7.80;78.20
68433;DHT22;55412;51.350;17.056;2023-05-27T02:23:12;7.80;78.10
68433;DHT22;55412;51.350;17.056;2023-05-27T02:25:38;7.70;78.20
68433;DHT22;55412;51.350;17.056;2023-05-27T02:28:04;7.70;78.30
68433;DHT22;55412;51.350;17.056;2023-05-27T02:30:31;7.60;78.70
68433;DHT22;55412;51.350;17.056;2023-05-27T02:32:58;7.60;79.00
68433;DHT22;55412;51.350;17.056;2023-05-27T02:35:24;7.60;79.30
68433;DHT22;55412;51.350;17.056;2023-05-27T02:37:50;7.60;79.20
68433;DHT22;55412;51.350;17.056;2023-05-27T02:40:29;7.60;79.50
68433;DHT22;55412;51.350;17.056;2023-05-27T02:42:56;7.50;79.30
68433;DHT22;55412;51.350;17.056;2023-05-27T02:45:22;7.50;79.10
68433;DHT22;55412;51.350;17.056;2023-05-27T02:47:49;7.50;79.10
68433;DHT22;55412;51.350;17.056;2023-05-27T02:50:16;7.50;79.20
68433;DHT22;55412;51.350;17.056;2023-05-27T02:52:42;7.40;79.50
68433;DHT22;55412;51.350;17.056;2023-05-27T02:55:08;7.40;80.20
68433;DHT22;55412;51.350;17.056;2023-05-27T02:57:34;7.40;80.40
68433;DHT22;55412;51.350;17.056;2023-05-27T03:00:01;7.40;80.60
68433;DHT22;55412;51.350;17.056;2023-05-27T03:02:28;7.40;80.70
68433;DHT22;55412;51.350;17.056;2023-05-27T03:04:54;7.40;80.80
68433;DHT22;55412;51.350;17.056;2023-05-27T03:07:21;7.40;80.80
68433;DHT22;55412;51.350;17.056;2023-05-27T03:09:47;7.40;80.90
68433;DHT22;55412;51.350;17.056;2023-05-27T03:12:13;7.40;80.90
68433;DHT22;55412;51.350;17.056;2023-05-27T03:14:39;7.40;80.70
68433;DHT22;55412;51.350;17.056;2023-05-27T03:17:05;7.50;80.60
68433;DHT22;55412;51.350;17.056;2023-05-27T03:19:32;7.50;80.60
68433;DHT22;55412;51.350;17.056;2023-05-27T03:21:58;7.60;80.60
68433;DHT22;55412;51.350;17.056;2023-05-27T03:24:25;7.60;80.50
68433;DHT22;55412;51.350;17.056;2023-05-27T03:26:51;7.70;80.50
68433;DHT22;55412;51.350;17.056;2023-05-27T03:29:17;7.70;80.50
68433;DHT22;55412;51.350;17.056;2023-05-27T03:31:43;7.80;80.30
68433;DHT22;55412;51.350;17.056;2023-05-27T03:34:09;7.90;80.20
68433;DHT22;55412;51.350;17.056;2023-05-27T03:36:35;8.00;80.30
68433;DHT22;55412;51.350;17.056;2023-05-27T03:39:03;8.20;80.10
68433;DHT22;55412;51.350;17.056;2023-05-27T03:41:30;8.30;79.90
68433;DHT22;55412;51.350;17.056;2023-05-27T03:43:57;8.50;79.60
68433;DHT22;55412;51.350;17.056;2023-05-27T03:46:23;8.80;78.70
68433;DHT22;55412;51.350;17.056;2023-05-27T03:48:49;9.10;77.90
68433;DHT22;55412;51.350;17.056;2023-05-27T03:51:15;9.50;76.90
68433;DHT22;55412;51.350;17.056;2023-05-27T03:53:41;10.00;75.00
68433;DHT22;55412;51.350;17.056;2023-05-27T03:56:07;10.70;73.10
68433;DHT22;55412;51.350;17.056;2023-05-27T03:58:33;11.40;71.10
68433;DHT22;55412;51.350;17.056;2023-05-27T04:00:59;12.20;68.50
68433;DHT22;55412;51.350;17.056;2023-05-27T04:03:25;13.00;65.90
68433;DHT22;55412;51.350;17.056;2023-05-27T04:05:51;13.70;63.20
68433;DHT22;55412;51.350;17.056;2023-05-27T04:08:18;14.40;61.20
68433;DHT22;55412;51.350;17.056;2023-05-27T04:10:44;15.10;58.70
68433;DHT22;55412;51.350;17.056;2023-05-27T04:13:10;15.80;56.80
68433;DHT22;55412;51.350;17.056;2023-05-27T04:15:36;16.50;54.70
68433;DHT22;55412;51.350;17.056;2023-05-27T04:18:02;17.20;52.50
68433;DHT22;55412;51.350;17.056;2023-05-27T04:20:38;17.80;51.00
68433;DHT22;55412;51.350;17.056;2023-05-27T04:23:08;18.50;49.40
68433;DHT22;55412;51.350;17.056;2023-05-27T04:25:34;19.10;48.10
68433;DHT22;55412;51.350;17.056;2023-05-27T04:28:01;19.80;46.60
68433;DHT22;55412;51.350;17.056;2023-05-27T04:30:31;20.50;44.70
68433;DHT22;55412;51.350;17.056;2023-05-27T04:32:57;21.10;43.80
68433;DHT22;55412;51.350;17.056;2023-05-27T04:35:23;21.70;42.80
68433;DHT22;55412;51.350;17.056;2023-05-27T04:37:49;22.20;41.60
68433;DHT22;55412;51.350;17.056;2023-05-27T04:40:15;22.60;41.00
68433;DHT22;55412;51.350;17.056;2023-05-27T04:42:42;23.00;40.40
68433;DHT22;55412;51.350;17.056;2023-05-27T04:45:10;23.60;39.30
68433;DHT22;55412;51.350;17.056;2023-05-27T04:47:37;24.10;38.20
68433;DHT22;55412;51.350;17.056;2023-05-27T04:50:04;24.60;37.80
68433;DHT22;55412;51.350;17.056;2023-05-27T04:52:31;25.10;37.10
68433;DHT22;55412;51.350;17.056;2023-05-27T04:55:07;25.50;36.20
68433;DHT22;55412;51.350;17.056;2023-05-27T04:57:35;26.00;36.00
68433;DHT22;55412;51.350;17.056;2023-05-27T05:00:05;26.60;35.10
68433;DHT22;55412;51.350;17.056;2023-05-27T05:02:34;27.00;34.40
68433;DHT22;55412;51.350;17.056;2023-05-27T05:05:05;27.30;34.00
68433;DHT22;55412;51.350;17.056;2023-05-27T05:07:34;27.70;33.00
68433;DHT22;55412;51.350;17.056;2023-05-27T05:10:07;28.20;32.80
68433;DHT22;55412;51.350;17.056;2023-05-27T05:12:34;28.50;32.00
68433;DHT22;55412;51.350;17.056;2023-05-27T05:15:01;28.70;31.60
68433;DHT22;55412;51.350;17.056;2023-05-27T05:17:27;29.00;31.10
68433;DHT22;55412;51.350;17.056;2023-05-27T05:19:54;29.30;31.10
68433;DHT22;55412;51.350;17.056;2023-05-27T05:22:20;29.60;30.90
68433;DHT22;55412;51.350;17.056;2023-05-27T05:24:51;29.90;30.70
68433;DHT22;55412;51.350;17.056;2023-05-27T05:27:17;30.30;30.50
68433;DHT22;55412;51.350;17.056;2023-05-27T05:29:44;30.80;30.00
68433;DHT22;55412;51.350;17.056;2023-05-27T05:32:10;31.20;29.10
68433;DHT22;55412;51.350;17.056;2023-05-27T05:34:39;31.40;29.10
68433;DHT22;55412;51.350;17.056;2023-05-27T05:37:06;31.60;28.80
68433;DHT22;55412;51.350;17.056;2023-05-27T05:39:32;31.90;29.00
68433;DHT22;55412;51.350;17.056;2023-05-27T05:41:58;32.30;28.10
68433;DHT22;55412;51.350;17.056;2023-05-27T05:44:25;32.70;28.00
68433;DHT22;55412;51.350;17.056;2023-05-27T05:46:51;33.00;27.60
68433;DHT22;55412;51.350;17.056;2023-05-27T05:49:18;33.30;27.10
68433;DHT22;55412;51.350;17.056;2023-05-27T05:51:45;33.50;27.40
68433;DHT22;55412;51.350;17.056;2023-05-27T05:54:11;33.80;27.10
68433;DHT22;55412;51.350;17.056;2023-05-27T05:56:37;33.80;26.90
68433;DHT22;55412;51.350;17.056;2023-05-27T05:59:04;33.80;26.70
68433;DHT22;55412;51.350;17.056;2023-05-27T06:01:31;33.90;25.90
68433;DHT22;55412;51.350;17.056;2023-05-27T06:03:57;33.80;25.90
68433;DHT22;55412;51.350;17.056;2023-05-27T06:06:24;33.40;26.60
68433;DHT22;55412;51.350;17.056;2023-05-27T06:08:50;33.30;26.80
68433;DHT22;55412;51.350;17.056;2023-05-27T06:11:16;33.40;26.60
68433;DHT22;55412;51.350;17.056;2023-05-27T06:13:42;33.60;26.70
68433;DHT22;55412;51.350;17.056;2023-05-27T06:16:08;33.50;25.70
68433;DHT22;55412;51.350;17.056;2023-05-27T06:18:34;33.50;26.80
68433;DHT22;55412;51.350;17.056;2023-05-27T06:21:00;33.70;26.80
68433;DHT22;55412;51.350;17.056;2023-05-27T06:23:26;33.90;26.10
68433;DHT22;55412;51.350;17.056;2023-05-27T06:25:52;34.30;26.20
68433;DHT22;55412;51.350;17.056;2023-05-27T06:28:18;34.60;25.70
68433;DHT22;55412;51.350;17.056;2023-05-27T06:30:44;34.60;25.60
68433;DHT22;55412;51.350;17.056;2023-05-27T06:33:10;34.70;26.10
68433;DHT22;55412;51.350;17.056;2023-05-27T06:35:36;34.80;24.00
68433;DHT22;55412;51.350;17.056;2023-05-27T06:38:10;34.60;24.60
68433;DHT22;55412;51.350;17.056;2023-05-27T06:40:51;34.40;24.50
68433;DHT22;55412;51.350;17.056;2023-05-27T06:43:18;34.40;25.00
68433;DHT22;55412;51.350;17.056;2023-05-27T06:46:22;34.80;25.30
68433;DHT22;55412;51.350;17.056;2023-05-27T06:48:48;35.10;23.90
68433;DHT22;55412;51.350;17.056;2023-05-27T06:51:17;34.50;24.60
68433;DHT22;55412;51.350;17.056;2023-05-27T06:53:45;34.30;24.60
68433;DHT22;55412;51.350;17.056;2023-05-27T06:56:14;33.90;25.30
68433;DHT22;55412;51.350;17.056;2023-05-27T06:58:41;33.40;24.60
68433;DHT22;55412;51.350;17.056;2023-05-27T07:01:07;32.60;25.10
68433;DHT22;55412;51.350;17.056;2023-05-27T07:03:34;31.90;26.50
68433;DHT22;55412;51.350;17.056;2023-05-27T07:06:00;31.60;26.30
68433;DHT22;55412;51.350;17.056;2023-05-27T07:08:26;31.50;26.50
68433;DHT22;55412;51.350;17.056;2023-05-27T07:10:56;31.20;26.60
68433;DHT22;55412;51.350;17.056;2023-05-27T07:13:22;31.20;27.30
68433;DHT22;55412;51.350;17.056;2023-05-27T07:15:48;31.60;26.90
68433;DHT22;55412;51.350;17.056;2023-05-27T07:18:16;31.80;26.40
68433;DHT22;55412;51.350;17.056;2023-05-27T07:20:42;31.80;26.90
68433;DHT22;55412;51.350;17.056;2023-05-27T07:23:08;31.80;26.70
68433;DHT22;55412;51.350;17.056;2023-05-27T07:25:34;31.30;27.10
68433;DHT22;55412;51.350;17.056;2023-05-27T07:28:00;31.10;27.10
68433;DHT22;55412;51.350;17.056;2023-05-27T07:30:27;30.70;26.70
68433;DHT22;55412;51.350;17.056;2023-05-27T07:32:53;30.20;27.00
68433;DHT22;55412;51.350;17.056;2023-05-27T07:35:20;29.60;27.50
68433;DHT22;55412;51.350;17.056;2023-05-27T07:37:46;29.30;28.20
68433;DHT22;55412;51.350;17.056;2023-05-27T07:40:12;29.10;28.90
68433;DHT22;55412;51.350;17.056;2023-05-27T07:42:38;28.10;29.30
68433;DHT22;55412;51.350;17.056;2023-05-27T07:45:04;26.90;30.80
68433;DHT22;55412;51.350;17.056;2023-05-27T07:47:31;25.80;32.00
68433;DHT22;55412;51.350;17.056;2023-05-27T07:49:57;25.10;33.70
68433;DHT22;55412;51.350;17.056;2023-05-27T07:52:23;24.80;33.10
68433;DHT22;55412;51.350;17.056;2023-05-27T07:54:49;24.20;31.60
68433;DHT22;55412;51.350;17.056;2023-05-27T07:57:15;23.60;33.60
68433;DHT22;55412;51.350;17.056;2023-05-27T07:59:42;23.00;33.60
68433;DHT22;55412;51.350;17.056;2023-05-27T08:02:09;22.30;34.50
68433;DHT22;55412;51.350;17.056;2023-05-27T08:04:35;21.90;35.60
68433;DHT22;55412;51.350;17.056;2023-05-27T08:07:01;21.70;35.30
68433;DHT22;55412;51.350;17.056;2023-05-27T08:09:27;21.40;35.50
68433;DHT22;55412;51.350;17.056;2023-05-27T08:11:53;21.00;35.90
68433;DHT22;55412;51.350;17.056;2023-05-27T08:14:19;20.80;37.10
68433;DHT22;55412;51.350;17.056;2023-05-27T08:16:46;20.70;36.50
68433;DHT22;55412;51.350;17.056;2023-05-27T08:19:12;20.70;37.20
68433;DHT22;55412;51.350;17.056;2023-05-27T08:21:38;20.50;37.10
68433;DHT22;55412;51.350;17.056;2023-05-27T08:24:04;20.40;37.10
68433;DHT22;55412;51.350;17.056;2023-05-27T08:26:31;20.30;38.40
68433;DHT22;55412;51.350;17.056;2023-05-27T08:28:57;20.30;38.40
68433;DHT22;55412;51.350;17.056;2023-05-27T08:31:23;20.20;38.50
68433;DHT22;55412;51.350;17.056;2023-05-27T08:33:49;20.10;39.20
68433;DHT22;55412;51.350;17.056;2023-05-27T08:36:15;20.10;39.00
68433;DHT22;55412;51.350;17.056;2023-05-27T08:38:43;20.20;40.20
68433;DHT22;55412;51.350;17.056;2023-05-27T08:41:09;20.50;39.10
68433;DHT22;55412;51.350;17.056;2023-05-27T08:43:36;20.70;39.50
68433;DHT22;55412;51.350;17.056;2023-05-27T08:46:03;21.00;39.60
68433;DHT22;55412;51.350;17.056;2023-05-27T08:48:30;21.20;42.60
68433;DHT22;55412;51.350;17.056;2023-05-27T08:50:56;21.40;39.40
68433;DHT22;55412;51.350;17.056;2023-05-27T08:53:24;21.50;40.10
68433;DHT22;55412;51.350;17.056;2023-05-27T08:55:51;21.50;38.60
68433;DHT22;55412;51.350;17.056;2023-05-27T08:58:20;21.50;38.20
68433;DHT22;55412;51.350;17.056;2023-05-27T09:00:47;21.50;39.10
68433;DHT22;55412;51.350;17.056;2023-05-27T09:03:13;21.60;39.30
68433;DHT22;55412;51.350;17.056;2023-05-27T09:05:39;21.80;39.30
68433;DHT22;55412;51.350;17.056;2023-05-27T09:08:05;21.90;39.90
68433;DHT22;55412;51.350;17.056;2023-05-27T09:10:39;21.90;37.70
68433;DHT22;55412;51.350;17.056;2023-05-27T09:13:06;21.80;38.50
68433;DHT22;55412;51.350;17.056;2023-05-27T09:15:33;21.80;39.80
68433;DHT22;55412;51.350;17.056;2023-05-27T09:18:00;21.90;39.00
68433;DHT22;55412;51.350;17.056;2023-05-27T09:20:28;22.00;37.10
68433;DHT22;55412;51.350;17.056;2023-05-27T09:23:02;21.80;36.90
68433;DHT22;55412;51.350;17.056;2023-05-27T09:25:29;21.50;38.70
68433;DHT22;55412;51.350;17.056;2023-05-27T09:27:56;21.10;38.20
68433;DHT22;55412;51.350;17.056;2023-05-27T09:30:25;20.80;38.70
68433;DHT22;55412;51.350;17.056;2023-05-27T09:33:00;20.60;38.30
68433;DHT22;55412;51.350;17.056;2023-05-27T09:35:28;20.70;40.60
68433;DHT22;55412;51.350;17.056;2023-05-27T09:37:54;20.70;37.90
68433;DHT22;55412;51.350;17.056;2023-05-27T09:40:20;20.50;39.10
68433;DHT22;55412;51.350;17.056;2023-05-27T09:42:50;20.60;38.00
68433;DHT22;55412;51.350;17.056;2023-05-27T09:45:20;20.40;37.70
68433;DHT22;55412;51.350;17.056;2023-05-27T09:47:51;20.50;38.70
68433;DHT22;55412;51.350;17.056;2023-05-27T09:50:19;20.60;38.80
68433;DHT22;55412;51.350;17.056;2023-05-27T09:52:47;20.30;36.90
68433;DHT22;55412;51.350;17.056;2023-05-27T09:55:15;20.20;38.70
68433;DHT22;55412;51.350;17.056;2023-05-27T09:57:42;20.40;39.50
68433;DHT22;55412;51.350;17.056;2023-05-27T10:00:10;20.70;40.10
68433;DHT22;55412;51.350;17.056;2023-05-27T10:02:41;21.00;36.70
68433;DHT22;55412;51.350;17.056;2023-05-27T10:05:10;21.30;37.50
68433;DHT22;55412;51.350;17.056;2023-05-27T10:07:38;21.50;36.90
68433;DHT22;55412;51.350;17.056;2023-05-27T10:10:11;21.60;33.60
68433;DHT22;55412;51.350;17.056;2023-05-27T10:12:39;21.50;35.50
68433;DHT22;55412;51.350;17.056;2023-05-27T10:15:07;21.50;35.70
68433;DHT22;55412;51.350;17.056;2023-05-27T10:17:47;21.50;33.90
68433;DHT22;55412;51.350;17.056;2023-05-27T10:25:50;21.80;36.10
68433;DHT22;55412;51.350;17.056;2023-05-27T10:28:30;22.00;35.20
68433;DHT22;55412;51.350;17.056;2023-05-27T10:33:38;22.10;34.90
68433;DHT22;55412;51.350;17.056;2023-05-27T10:36:16;22.10;34.00
68433;DHT22;55412;51.350;17.056;2023-05-27T10:39:02;21.90;32.70
68433;DHT22;55412;51.350;17.056;2023-05-27T10:44:37;21.00;34.20
68433;DHT22;55412;51.350;17.056;2023-05-27T10:47:14;20.70;31.70
68433;DHT22;55412;51.350;17.056;2023-05-27T10:49:44;20.60;33.60
68433;DHT22;55412;51.350;17.056;2023-05-27T10:52:12;20.80;35.00
68433;DHT22;55412;51.350;17.056;2023-05-27T10:54:47;21.00;33.90
68433;DHT22;55412;51.350;17.056;2023-05-27T10:57:18;21.00;33.30
68433;DHT22;55412;51.350;17.056;2023-05-27T10:59:51;20.80;34.10
68433;DHT22;55412;51.350;17.056;2023-05-27T11:02:19;20.70;34.30
68433;DHT22;55412;51.350;17.056;2023-05-27T11:04:48;20.60;35.40
68433;DHT22;55412;51.350;17.056;2023-05-27T11:07:18;20.50;31.60
68433;DHT22;55412;51.350;17.056;2023-05-27T11:09:49;20.30;32.80
68433;DHT22;55412;51.350;17.056;2023-05-27T11:12:17;20.00;33.20
68433;DHT22;55412;51.350;17.056;2023-05-27T11:14:55;19.90;33.70
68433;DHT22;55412;51.350;17.056;2023-05-27T11:17:22;19.80;33.60
68433;DHT22;55412;51.350;17.056;2023-05-27T11:19:49;19.90;33.20
68433;DHT22;55412;51.350;17.056;2023-05-27T11:22:16;20.00;34.50
68433;DHT22;55412;51.350;17.056;2023-05-27T11:24:55;20.00;33.50
68433;DHT22;55412;51.350;17.056;2023-05-27T11:27:32;19.80;34.90
68433;DHT22;55412;51.350;17.056;2023-05-27T11:30:09;19.70;33.30
68433;DHT22;55412;51.350;17.056;2023-05-27T11:32:37;19.70;34.20
68433;DHT22;55412;51.350;17.056;2023-05-27T11:35:04;19.80;33.80
68433;DHT22;55412;51.350;17.056;2023-05-27T11:37:34;20.00;32.70
68433;DHT22;55412;51.350;17.056;2023-05-27T11:40:00;20.10;33.00
68433;DHT22;55412;51.350;17.056;2023-05-27T11:42:28;20.20;32.60
68433;DHT22;55412;51.350;17.056;2023-05-27T11:44:55;20.20;31.00
68433;DHT22;55412;51.350;17.056;2023-05-27T11:47:22;20.10;32.10
68433;DHT22;55412;51.350;17.056;2023-05-27T11:49:49;20.00;34.60
68433;DHT22;55412;51.350;17.056;2023-05-27T11:52:15;20.00;33.50
68433;DHT22;55412;51.350;17.056;2023-05-27T11:54:42;20.00;35.60
68433;DHT22;55412;51.350;17.056;2023-05-27T11:57:10;20.00;33.70
68433;DHT22;55412;51.350;17.056;2023-05-27T11:59:36;20.00;33.30
68433;DHT22;55412;51.350;17.056;2023-05-27T12:02:06;20.00;35.50
68433;DHT22;55412;51.350;17.056;2023-05-27T12:04:32;20.20;38.50
68433;DHT22;55412;51.350;17.056;2023-05-27T12:07:00;20.40;35.70
68433;DHT22;55412;51.350;17.056;2023-05-27T12:09:28;20.60;35.60
68433;DHT22;55412;51.350;17.056;2023-05-27T12:11:54;20.70;35.40
68433;DHT22;55412;51.350;17.056;2023-05-27T12:14:21;20.80;34.40
68433;DHT22;55412;51.350;17.056;2023-05-27T12:16:48;20.90;36.70
68433;DHT22;55412;51.350;17.056;2023-05-27T12:19:14;21.00;35.70
68433;DHT22;55412;51.350;17.056;2023-05-27T12:21:40;21.10;34.40
68433;DHT22;55412;51.350;17.056;2023-05-27T12:24:06;21.10;34.40
68433;DHT22;55412;51.350;17.056;2023-05-27T12:26:32;21.20;34.00
68433;DHT22;55412;51.350;17.056;2023-05-27T12:28:58;21.10;35.50
68433;DHT22;55412;51.350;17.056;2023-05-27T12:31:24;20.90;34.50
68433;DHT22;55412;51.350;17.056;2023-05-27T12:33:51;20.80;33.90
68433;DHT22;55412;51.350;17.056;2023-05-27T12:36:17;20.70;35.50
68433;DHT22;55412;51.350;17.056;2023-05-27T12:38:44;20.80;36.20
68433;DHT22;55412;51.350;17.056;2023-05-27T12:41:10;20.90;37.20
68433;DHT22;55412;51.350;17.056;2023-05-27T12:43:37;21.00;37.00
68433;DHT22;55412;51.350;17.056;2023-05-27T12:46:03;21.20;36.40
68433;DHT22;55412;51.350;17.056;2023-05-27T12:48:29;21.30;35.00
68433;DHT22;55412;51.350;17.056;2023-05-27T12:50:55;21.20;35.60
68433;DHT22;55412;51.350;17.056;2023-05-27T12:53:23;21.10;34.30
68433;DHT22;55412;51.350;17.056;2023-05-27T12:55:49;21.00;34.60
68433;DHT22;55412;51.350;17.056;2023-05-27T12:58:15;20.90;35.00
68433;DHT22;55412;51.350;17.056;2023-05-27T13:00:41;20.70;35.00
68433;DHT22;55412;51.350;17.056;2023-05-27T13:03:09;20.60;34.00
68433;DHT22;55412;51.350;17.056;2023-05-27T13:05:36;20.60;35.80
68433;DHT22;55412;51.350;17.056;2023-05-27T13:08:03;20.60;35.60
68433;DHT22;55412;51.350;17.056;2023-05-27T13:10:33;20.80;36.40
68433;DHT22;55412;51.350;17.056;2023-05-27T13:13:00;20.90;37.30
68433;DHT22;55412;51.350;17.056;2023-05-27T13:15:29;21.00;35.20
68433;DHT22;55412;51.350;17.056;2023-05-27T13:17:57;21.00;35.80
68433;DHT22;55412;51.350;17.056;2023-05-27T13:20:25;20.80;35.30
68433;DHT22;55412;51.350;17.056;2023-05-27T13:22:55;20.60;35.50
68433;DHT22;55412;51.350;17.056;2023-05-27T13:25:26;20.50;34.80
68433;DHT22;55412;51.350;17.056;2023-05-27T13:27:54;20.50;36.00
68433;DHT22;55412;51.350;17.056;2023-05-27T13:30:21;20.40;36.70
68433;DHT22;55412;51.350;17.056;2023-05-27T13:32:48;20.40;36.80
68433;DHT22;55412;51.350;17.056;2023-05-27T13:35:15;20.40;36.60
68433;DHT22;55412;51.350;17.056;2023-05-27T13:37:42;20.40;37.70
68433;DHT22;55412;51.350;17.056;2023-05-27T13:40:08;20.50;36.20
68433;DHT22;55412;51.350;17.056;2023-05-27T13:42:36;20.60;37.20
68433;DHT22;55412;51.350;17.056;2023-05-27T13:45:02;20.50;35.80
68433;DHT22;55412;51.350;17.056;2023-05-27T13:47:29;20.50;36.00
68433;DHT22;55412;51.350;17.056;2023-05-27T13:49:55;20.60;35.90
68433;DHT22;55412;51.350;17.056;2023-05-27T13:52:21;20.60;35.00
68433;DHT22;55412;51.350;17.056;2023-05-27T13:54:47;20.60;36.10
68433;DHT22;55412;51.350;17.056;2023-05-27T13:57:13;20.60;35.30
68433;DHT22;55412;51.350;17.056;2023-05-27T13:59:39;20.60;34.70
68433;DHT22;55412;51.350;17.056;2023-05-27T14:02:06;20.60;35.20
68433;DHT22;55412;51.350;17.056;2023-05-27T14:04:34;20.70;36.00
68433;DHT22;55412;51.350;17.056;2023-05-27T14:07:00;20.70;35.30
68433;DHT22;55412;51.350;17.056;2023-05-27T14:09:26;20.70;34.80
68433;DHT22;55412;51.350;17.056;2023-05-27T14:11:53;20.70;34.30
68433;DHT22;55412;51.350;17.056;2023-05-27T14:14:20;20.70;35.30
68433;DHT22;55412;51.350;17.056;2023-05-27T14:16:46;20.60;35.20
68433;DHT22;55412;51.350;17.056;2023-05-27T14:19:13;20.60;34.90
68433;DHT22;55412;51.350;17.056;2023-05-27T14:21:39;20.60;35.30
68433;DHT22;55412;51.350;17.056;2023-05-27T14:24:06;20.60;34.70
68433;DHT22;55412;51.350;17.056;2023-05-27T14:26:32;20.40;34.70
68433;DHT22;55412;51.350;17.056;2023-05-27T14:28:58;20.30;35.30
68433;DHT22;55412;51.350;17.056;2023-05-27T14:31:24;20.20;34.50
68433;DHT22;55412;51.350;17.056;2023-05-27T14:33:50;20.10;36.20
68433;DHT22;55412;51.350;17.056;2023-05-27T14:36:16;20.10;34.60
68433;DHT22;55412;51.350;17.056;2023-05-27T14:38:42;20.10;35.60
68433;DHT22;55412;51.350;17.056;2023-05-27T14:41:09;20.10;34.70
68433;DHT22;55412;51.350;17.056;2023-05-27T14:43:35;20.10;34.40
68433;DHT22;55412;51.350;17.056;2023-05-27T14:46:01;20.10;34.80
68433;DHT22;55412;51.350;17.056;2023-05-27T14:48:27;20.10;34.50
68433;DHT22;55412;51.350;17.056;2023-05-27T14:50:53;20.10;33.90
68433;DHT22;55412;51.350;17.056;2023-05-27T14:53:19;20.10;35.40
68433;DHT22;55412;51.350;17.056;2023-05-27T14:55:45;20.10;34.60
68433;DHT22;55412;51.350;17.056;2023-05-27T14:58:12;20.10;35.40
68433;DHT22;55412;51.350;17.056;2023-05-27T15:00:38;20.10;34.80
68433;DHT22;55412;51.350;17.056;2023-05-27T15:03:04;20.20;35.30
68433;DHT22;55412;51.350;17.056;2023-05-27T15:05:30;20.10;35.00
68433;DHT22;55412;51.350;17.056;2023-05-27T15:07:56;20.10;34.20
68433;DHT22;55412;51.350;17.056;2023-05-27T15:10:23;20.00;34.40
68433;DHT22;55412;51.350;17.056;2023-05-27T15:12:49;19.90;34.40
68433;DHT22;55412;51.350;17.056;2023-05-27T15:15:18;19.90;34.90
68433;DHT22;55412;51.350;17.056;2023-05-27T15:17:46;19.90;35.80
68433;DHT22;55412;51.350;17.056;2023-05-27T15:20:14;19.90;35.40
68433;DHT22;55412;51.350;17.056;2023-05-27T15:22:41;19.90;34.60
68433;DHT22;55412;51.350;17.056;2023-05-27T15:25:08;19.80;35.40
68433;DHT22;55412;51.350;17.056;2023-05-27T15:27:35;19.70;34.60
68433;DHT22;55412;51.350;17.056;2023-05-27T15:30:03;19.70;34.20
68433;DHT22;55412;51.350;17.056;2023-05-27T15:32:30;19.60;35.50
68433;DHT22;55412;51.350;17.056;2023-05-27T15:34:57;19.60;35.50
68433;DHT22;55412;51.350;17.056;2023-05-27T15:37:24;19.60;35.30
68433;DHT22;55412;51.350;17.056;2023-05-27T15:39:50;19.50;35.90